createdAt,value
2018-08-11T00:00:24.336Z,46.17
2018-08-11T00:02:53.487Z,45.69
2018-08-11T00:05:22.638Z,46.90
2018-08-11T00:07:51.891Z,45.71
2018-08-11T00:10:21.289Z,46.50
2018-08-11T00:12:50.405Z,45.39
2018-08-11T00:15:20.466Z,46.36
2018-08-11T00:17:49.615Z,45.87
2018-08-11T00:20:25.999Z,46.15
2018-08-11T00:22:55.174Z,46.14
2018-08-11T00:28:03.316Z,47.06
2018-08-11T00:30:32.471Z,46.91
2018-08-11T00:33:01.723Z,47.00
2018-08-11T00:35:30.870Z,47.55
2018-08-11T00:38:00.011Z,47.48
2018-08-11T00:40:29.168Z,48.27
2018-08-11T00:42:58.431Z,48.96
2018-08-11T00:45:27.642Z,50.82
2018-08-11T00:47:56.791Z,52.21
2018-08-11T00:50:30.121Z,54.91
2018-08-11T00:55:38.258Z,58.63
2018-08-11T00:58:07.399Z,62.13
2018-08-11T01:00:36.579Z,65.33
2018-08-11T01:03:06.262Z,65.96
2018-08-11T01:05:35.402Z,67.74
2018-08-11T01:08:04.543Z,70.54
2018-08-11T01:10:33.756Z,71.82
2018-08-11T01:13:02.905Z,73.21
2018-08-11T01:15:32.063Z,73.49
2018-08-11T01:18:01.315Z,75.17
2018-08-11T01:20:30.479Z,77.90
2018-08-11T01:22:59.643Z,79.43
2018-08-11T01:25:28.881Z,80.79
2018-08-11T01:27:58.007Z,81.49
2018-08-11T01:30:27.182Z,82.01
2018-08-11T01:32:56.373Z,82.52
2018-08-11T01:35:25.575Z,83.56
2018-08-11T01:37:54.713Z,87.31
2018-08-11T01:40:23.875Z,89.70
2018-08-11T01:42:53.040Z,90.40
2018-08-11T01:45:22.459Z,91.06
2018-08-11T01:47:51.654Z,91.73
2018-08-11T01:50:20.854Z,91.57
2018-08-11T01:52:50.032Z,93.20
2018-08-11T01:55:19.557Z,92.92
2018-08-11T01:57:48.690Z,93.34
2018-08-11T02:00:21.025Z,92.81
2018-08-11T02:02:50.213Z,93.75
2018-08-11T02:05:19.351Z,91.57
2018-08-11T02:07:48.515Z,91.88
2018-08-11T02:10:19.715Z,91.68
2018-08-11T02:12:49.104Z,92.59
2018-08-11T02:15:19.143Z,91.36
2018-08-11T02:17:48.290Z,91.49
2018-08-11T02:20:18.709Z,92.10
2018-08-11T02:22:48.826Z,91.81
2018-08-11T02:25:18.001Z,91.11
2018-08-11T02:27:47.155Z,91.52
2018-08-11T02:30:17.522Z,92.16
2018-08-11T02:32:46.754Z,91.88
2018-08-11T02:35:15.963Z,90.87
2018-08-11T02:37:45.163Z,91.08
2018-08-11T02:40:16.430Z,90.53
2018-08-11T02:42:45.585Z,90.62
2018-08-11T02:45:17.816Z,90.62
2018-08-11T02:47:47.528Z,89.15
2018-08-11T02:50:16.732Z,90.27
2018-08-11T02:52:45.961Z,91.31
2018-08-11T02:55:15.140Z,90.87
2018-08-11T02:57:44.401Z,91.13
2018-08-11T03:00:13.887Z,90.33
2018-08-11T03:02:43.120Z,91.98
2018-08-11T03:05:12.270Z,91.47
2018-08-11T03:10:19.285Z,90.88
2018-08-11T03:15:32.112Z,90.15
2018-08-11T03:18:01.230Z,90.95
2018-08-11T03:20:30.382Z,90.83
2018-08-11T03:22:59.563Z,91.50
2018-08-11T03:25:28.707Z,91.51
2018-08-11T03:27:57.866Z,91.34
2018-08-11T03:30:27.427Z,90.40
2018-08-11T03:32:56.587Z,91.26
2018-08-11T03:35:25.765Z,92.24
2018-08-11T03:37:54.989Z,92.15
2018-08-11T03:40:24.179Z,91.71
2018-08-11T03:42:53.351Z,91.36
2018-08-11T03:45:24.009Z,91.94
2018-08-11T03:47:53.141Z,91.65
2018-08-11T03:50:22.301Z,90.34
2018-08-11T03:52:51.444Z,90.54
2018-08-11T03:55:20.579Z,89.85
2018-08-11T03:57:49.713Z,90.68
2018-08-11T04:00:19.934Z,91.01
2018-08-11T04:02:49.107Z,91.14
2018-08-11T04:05:18.286Z,91.42
2018-08-11T04:07:47.511Z,91.29
2018-08-11T04:10:16.631Z,90.99
2018-08-11T04:12:45.766Z,91.07
2018-08-11T04:15:15.642Z,90.40
2018-08-11T04:17:44.772Z,90.67
2018-08-11T04:22:55.559Z,89.77
2018-08-11T04:25:31.238Z,90.37
2018-08-11T04:28:00.352Z,89.86
2018-08-11T04:30:30.240Z,90.33
2018-08-11T04:32:59.364Z,90.38
2018-08-11T04:35:28.551Z,91.05
2018-08-11T04:37:57.806Z,90.70
2018-08-11T04:40:26.944Z,90.07
2018-08-11T04:42:56.087Z,90.19
2018-08-11T04:45:25.204Z,90.15
2018-08-11T04:47:54.324Z,90.56
2018-08-11T04:50:23.455Z,90.52
2018-08-11T04:52:52.603Z,90.05
2018-08-11T04:55:21.776Z,90.74
2018-08-11T04:57:50.901Z,90.64
2018-08-11T05:00:20.085Z,90.61
2018-08-11T05:02:49.195Z,90.92
2018-08-11T05:05:18.395Z,90.37
2018-08-11T05:07:47.517Z,89.71
2018-08-11T05:10:16.619Z,90.23
2018-08-11T05:12:45.768Z,90.02
2018-08-11T05:15:16.829Z,89.76
2018-08-11T05:17:46.021Z,88.68
2018-08-11T05:20:15.153Z,88.35
2018-08-11T05:22:44.264Z,88.37
2018-08-11T05:25:13.427Z,87.01
2018-08-11T05:27:42.523Z,86.92
2018-08-11T05:30:12.353Z,87.28
2018-08-11T05:32:41.490Z,86.24
2018-08-11T05:35:10.655Z,86.31
2018-08-11T05:37:39.787Z,86.83
2018-08-11T05:40:08.964Z,87.70
2018-08-11T05:42:38.139Z,87.45
2018-08-11T05:45:08.197Z,87.36
2018-08-11T05:47:37.328Z,86.65
2018-08-11T05:50:06.729Z,87.02
2018-08-11T05:52:35.820Z,86.63
2018-08-11T05:55:05.358Z,85.90
2018-08-11T05:57:35.437Z,83.24
2018-08-11T06:00:06.614Z,81.40
2018-08-11T06:02:35.748Z,81.77
2018-08-11T06:05:05.290Z,81.33
2018-08-11T06:07:34.417Z,82.05
2018-08-11T06:10:03.922Z,80.16
2018-08-11T06:12:33.067Z,78.43
2018-08-11T06:15:02.197Z,77.42
2018-08-11T06:17:31.335Z,77.33
2018-08-11T06:20:00.451Z,76.20
2018-08-11T06:22:29.603Z,75.43
2018-08-11T06:24:58.707Z,74.01
2018-08-11T06:27:27.819Z,73.08
2018-08-11T06:29:56.924Z,74.88
2018-08-11T06:32:26.029Z,74.71
2018-08-11T06:34:55.229Z,73.71
2018-08-11T06:37:24.391Z,73.85
2018-08-11T06:39:53.594Z,71.72
2018-08-11T06:42:22.680Z,70.67
2018-08-11T06:44:51.824Z,69.57
2018-08-11T06:47:20.944Z,70.58
2018-08-11T06:49:50.070Z,70.75
2018-08-11T06:52:19.199Z,70.93
2018-08-11T06:54:48.283Z,67.46
2018-08-11T06:57:17.471Z,67.25
2018-08-11T06:59:46.622Z,66.01
2018-08-11T07:02:15.788Z,65.12
2018-08-11T07:04:44.963Z,64.94
2018-08-11T07:07:14.081Z,64.18
2018-08-11T07:09:43.295Z,64.28
2018-08-11T07:12:12.500Z,63.86
2018-08-11T07:14:41.631Z,60.95
2018-08-11T07:17:10.803Z,58.87
2018-08-11T07:19:39.943Z,56.82
2018-08-11T07:22:09.078Z,57.39
2018-08-11T07:24:38.265Z,56.47
2018-08-11T07:27:07.641Z,54.13
2018-08-11T07:29:36.834Z,55.94
2018-08-11T07:32:05.959Z,53.95
2018-08-11T07:34:35.198Z,54.03
2018-08-11T07:37:04.291Z,52.94
2018-08-11T07:39:33.426Z,51.72
2018-08-11T07:42:02.545Z,50.53
2018-08-11T07:44:31.665Z,51.67
2018-08-11T07:47:00.855Z,50.23
2018-08-11T07:49:30.063Z,48.91
2018-08-11T07:51:59.199Z,48.35
2018-08-11T07:54:28.324Z,46.92
2018-08-11T07:56:57.453Z,46.72
2018-08-11T07:59:26.708Z,46.94
2018-08-11T08:01:55.892Z,47.30
2018-08-11T08:04:25.011Z,45.43
2018-08-11T08:06:54.117Z,45.08
2018-08-11T08:09:23.240Z,43.17
2018-08-11T08:11:52.334Z,43.14
2018-08-11T08:14:21.466Z,42.86
2018-08-11T08:16:50.543Z,43.98
2018-08-11T08:19:19.663Z,43.15
2018-08-11T08:21:48.997Z,43.47
2018-08-11T08:24:18.121Z,42.80
2018-08-11T08:26:47.385Z,43.42
2018-08-11T08:29:16.452Z,43.86
2018-08-11T08:31:45.567Z,44.71
2018-08-11T08:34:14.659Z,45.03
2018-08-11T08:36:43.767Z,43.49
2018-08-11T08:39:13.285Z,42.66
2018-08-11T08:41:42.693Z,40.78
2018-08-11T08:44:11.767Z,42.24
2018-08-11T08:46:40.892Z,41.95
2018-08-11T08:49:10.124Z,40.88
2018-08-11T08:51:39.371Z,39.89
2018-08-11T08:54:08.495Z,38.33
2018-08-11T08:56:37.579Z,39.59
2018-08-11T08:59:06.768Z,40.91
2018-08-11T09:01:35.848Z,41.83
2018-08-11T09:04:05.129Z,41.54
2018-08-11T09:06:34.297Z,40.30
2018-08-11T09:09:04.118Z,38.69
2018-08-11T09:11:33.195Z,36.56
2018-08-11T09:14:02.337Z,34.83
2018-08-11T09:16:31.463Z,35.13
2018-08-11T09:19:00.642Z,36.51
2018-08-11T09:21:29.765Z,37.46
2018-08-11T09:23:58.881Z,39.73
2018-08-11T09:26:28.005Z,41.21
2018-08-11T09:28:57.111Z,40.84
2018-08-11T09:31:26.206Z,37.23
2018-08-11T09:33:55.303Z,38.58
2018-08-11T09:36:24.407Z,38.29
2018-08-11T09:38:53.564Z,39.26
2018-08-11T09:41:22.689Z,38.09
2018-08-11T09:43:52.080Z,37.82
2018-08-11T09:46:21.175Z,38.58
2018-08-11T09:51:29.263Z,39.29
2018-08-11T09:53:58.392Z,41.29
2018-08-11T09:56:27.484Z,40.08
2018-08-11T09:58:56.611Z,40.68
2018-08-11T10:01:30.981Z,41.00
2018-08-11T10:04:00.112Z,40.63
2018-08-11T10:06:29.215Z,38.39
2018-08-11T10:08:58.335Z,38.33
2018-08-11T10:11:27.448Z,35.80
2018-08-11T10:13:56.591Z,35.55
2018-08-11T10:16:25.684Z,36.73
2018-08-11T10:18:54.828Z,36.60
2018-08-11T10:21:23.954Z,38.13
2018-08-11T10:23:53.035Z,37.73
2018-08-11T10:26:22.172Z,37.21
2018-08-11T10:28:51.358Z,35.60
2018-08-11T10:31:20.468Z,33.84
2018-08-11T10:33:49.609Z,34.39
2018-08-11T10:36:18.768Z,33.80
2018-08-11T10:38:47.881Z,33.36
2018-08-11T10:41:17.024Z,31.63
2018-08-11T10:43:46.447Z,29.88
2018-08-11T10:46:15.593Z,31.47
2018-08-11T10:48:44.723Z,31.90
2018-08-11T10:51:13.864Z,31.60
2018-08-11T10:53:43.085Z,31.71
2018-08-11T10:56:12.201Z,31.85
2018-08-11T10:58:41.296Z,30.56
2018-08-11T11:01:10.515Z,29.17
2018-08-11T11:03:39.563Z,31.84
2018-08-11T11:06:08.707Z,31.75
2018-08-11T11:08:37.851Z,34.03
2018-08-11T11:11:07.021Z,35.45
2018-08-11T11:13:36.196Z,34.80
2018-08-11T11:16:05.441Z,33.32
2018-08-11T11:18:34.596Z,32.99
2018-08-11T11:21:03.696Z,30.24
2018-08-11T11:23:32.811Z,30.42
2018-08-11T11:26:01.949Z,30.14
2018-08-11T11:28:31.132Z,33.59
2018-08-11T11:31:00.228Z,32.41
2018-08-11T11:33:29.367Z,31.76
2018-08-11T11:35:58.569Z,28.46
2018-08-11T11:38:27.739Z,28.53
2018-08-11T11:40:56.866Z,30.40
2018-08-11T11:43:25.976Z,31.18
2018-08-11T11:45:55.167Z,29.90
2018-08-11T11:48:24.379Z,29.61
2018-08-11T11:50:53.501Z,28.58
2018-08-11T11:53:22.588Z,29.21
2018-08-11T11:55:51.736Z,28.64
2018-08-11T11:58:20.827Z,30.18
2018-08-11T12:00:49.950Z,29.34
2018-08-11T12:03:19.156Z,32.08
2018-08-11T12:05:48.364Z,32.21
2018-08-11T12:08:17.460Z,32.70
2018-08-11T12:10:46.728Z,33.49
2018-08-11T12:13:15.854Z,33.48
2018-08-11T12:15:44.984Z,33.92
2018-08-11T12:18:14.163Z,31.12
2018-08-11T12:20:43.239Z,29.88
2018-08-11T12:23:12.324Z,28.31
2018-08-11T12:25:41.463Z,29.75
2018-08-11T12:28:10.631Z,29.69
2018-08-11T12:30:39.784Z,30.56
2018-08-11T12:33:08.942Z,32.37
2018-08-11T12:35:38.081Z,32.55
2018-08-11T12:38:07.184Z,30.71
2018-08-11T12:40:36.331Z,29.86
2018-08-11T12:43:05.415Z,29.29
2018-08-11T12:45:34.519Z,28.15
2018-08-11T12:48:03.812Z,28.08
2018-08-11T12:50:32.963Z,26.55
2018-08-11T12:53:02.130Z,27.41
2018-08-11T12:55:31.371Z,27.09
2018-08-11T12:58:00.495Z,28.24
2018-08-11T13:00:29.675Z,29.55
2018-08-11T13:02:58.795Z,30.54
2018-08-11T13:05:27.899Z,30.69
2018-08-11T13:07:57.000Z,30.24
2018-08-11T13:10:26.159Z,31.62
2018-08-11T13:12:55.231Z,32.55
2018-08-11T13:15:24.853Z,32.27
2018-08-11T13:17:53.959Z,31.32
2018-08-11T13:20:23.267Z,30.92
2018-08-11T13:22:52.460Z,30.84
2018-08-11T13:25:21.604Z,30.49
2018-08-11T13:27:50.698Z,30.20
2018-08-11T13:30:20.606Z,30.59
2018-08-11T13:32:49.704Z,29.73
2018-08-11T13:35:18.815Z,29.89
2018-08-11T13:37:47.963Z,30.88
2018-08-11T13:40:17.120Z,31.10
2018-08-11T13:42:46.222Z,31.56
2018-08-11T13:45:16.966Z,29.70
2018-08-11T13:47:46.120Z,30.39
2018-08-11T13:50:15.228Z,28.35
2018-08-11T13:52:44.319Z,29.27
2018-08-11T13:55:13.768Z,29.43
2018-08-11T13:57:42.856Z,29.51
2018-08-11T14:00:12.408Z,28.76
2018-08-11T14:02:41.511Z,28.33
2018-08-11T14:05:10.596Z,28.55
2018-08-11T14:07:39.801Z,28.64
2018-08-11T14:10:10.218Z,28.59
2018-08-11T14:12:39.359Z,29.13
2018-08-11T14:15:09.415Z,28.28
2018-08-11T14:17:38.531Z,28.80
2018-08-11T14:20:08.781Z,29.20
2018-08-11T14:22:37.995Z,30.32
2018-08-11T14:25:07.409Z,31.17
2018-08-11T14:27:36.744Z,29.90
2018-08-11T14:30:09.553Z,31.05
2018-08-11T14:35:17.614Z,30.14
2018-08-11T14:37:46.833Z,30.34
2018-08-11T14:40:15.957Z,29.77
2018-08-11T14:42:49.299Z,29.54
2018-08-11T14:45:18.977Z,29.05
2018-08-11T14:47:48.072Z,30.00
2018-08-11T14:50:17.223Z,30.37
2018-08-11T14:52:46.359Z,30.04
2018-08-11T14:55:15.483Z,28.70
2018-08-11T14:57:44.627Z,29.13
2018-08-11T15:00:14.609Z,29.26
2018-08-11T15:02:43.715Z,29.42
2018-08-11T15:05:12.875Z,29.08
2018-08-11T15:07:41.981Z,28.49
2018-08-11T15:10:11.138Z,28.60
2018-08-11T15:12:40.180Z,29.60
2018-08-11T15:15:11.221Z,30.34
2018-08-11T15:17:41.391Z,30.86
2018-08-11T15:20:10.783Z,31.37
2018-08-11T15:22:40.292Z,31.67
2018-08-11T15:25:09.990Z,32.79
2018-08-11T15:27:39.459Z,31.13
2018-08-11T15:30:11.687Z,31.75
2018-08-11T15:32:40.768Z,30.82
2018-08-11T15:35:10.259Z,31.59
2018-08-11T15:37:39.372Z,31.95
2018-08-11T15:40:08.775Z,32.46
2018-08-11T15:42:37.900Z,32.57
2018-08-11T15:45:08.712Z,32.49
2018-08-11T15:47:38.068Z,32.64
2018-08-11T15:50:07.239Z,33.20
2018-08-11T15:52:36.492Z,32.02
2018-08-11T15:55:05.927Z,32.40
2018-08-11T15:57:35.042Z,32.74
2018-08-11T16:00:04.966Z,32.71
2018-08-11T16:02:34.055Z,31.93
2018-08-11T16:05:03.170Z,33.92
2018-08-11T16:07:32.299Z,33.35
2018-08-11T16:10:01.475Z,33.85
2018-08-11T16:12:30.579Z,33.43
2018-08-11T16:14:59.709Z,34.46
2018-08-11T16:17:28.846Z,35.07
2018-08-11T16:19:57.951Z,34.15
2018-08-11T16:22:27.084Z,34.75
2018-08-11T16:24:56.160Z,34.92
2018-08-11T16:27:25.254Z,34.42
2018-08-11T16:29:54.364Z,33.84
2018-08-11T16:32:23.475Z,34.59
2018-08-11T16:34:52.580Z,34.51
2018-08-11T16:37:21.713Z,33.74
2018-08-11T16:39:50.894Z,34.98
2018-08-11T16:42:19.996Z,34.88
2018-08-11T16:44:49.129Z,35.53
2018-08-11T16:47:18.263Z,35.65
2018-08-11T16:49:47.346Z,34.59
2018-08-11T16:52:16.551Z,35.80
2018-08-11T16:54:45.663Z,35.05
2018-08-11T16:57:14.767Z,35.55
2018-08-11T16:59:43.939Z,36.05
2018-08-11T17:02:13.055Z,36.22
2018-08-11T17:04:42.149Z,36.31
2018-08-11T17:07:11.288Z,35.77
2018-08-11T17:09:40.615Z,36.79
2018-08-11T17:12:09.736Z,36.06
2018-08-11T17:14:38.923Z,35.66
2018-08-11T17:17:07.992Z,36.17
2018-08-11T17:19:37.080Z,35.93
2018-08-11T17:22:06.423Z,37.16
2018-08-11T17:24:35.542Z,36.55
2018-08-11T17:27:04.803Z,36.48
2018-08-11T17:29:33.881Z,37.21
2018-08-11T17:32:03.023Z,36.66
2018-08-11T17:34:32.141Z,38.12
2018-08-11T17:37:01.275Z,37.98
2018-08-11T17:39:30.364Z,38.03
2018-08-11T17:41:59.480Z,38.31
2018-08-11T17:44:28.601Z,38.49
2018-08-11T17:46:57.703Z,39.32
2018-08-11T17:49:26.803Z,38.34
2018-08-11T17:51:56.003Z,38.79
2018-08-11T17:54:24.994Z,38.96
2018-08-11T17:56:54.192Z,38.90
2018-08-11T17:59:23.308Z,38.45
2018-08-11T18:01:52.452Z,38.98
2018-08-11T18:04:21.560Z,40.18
2018-08-11T18:06:50.674Z,39.78
2018-08-11T18:09:19.780Z,40.52
2018-08-11T18:11:48.863Z,40.48
2018-08-11T18:14:17.976Z,41.32
2018-08-11T18:16:47.080Z,40.14
2018-08-11T18:19:16.187Z,40.85
2018-08-11T18:21:45.382Z,40.87
2018-08-11T18:24:14.479Z,40.72
2018-08-11T18:26:43.585Z,41.43
2018-08-11T18:29:12.932Z,41.62
2018-08-11T18:31:42.021Z,41.08
2018-08-11T18:34:11.116Z,41.50
2018-08-11T18:36:40.230Z,41.37
2018-08-11T18:39:11.707Z,41.67
2018-08-11T18:41:40.934Z,41.97
2018-08-11T18:44:10.083Z,42.40
2018-08-11T18:46:39.192Z,42.09
2018-08-11T18:49:08.307Z,43.07
2018-08-11T18:51:37.604Z,43.75
2018-08-11T18:54:06.851Z,43.39
2018-08-11T18:56:35.977Z,42.54
2018-08-11T18:59:05.076Z,42.93
2018-08-11T19:04:13.184Z,43.92
2018-08-11T19:06:42.565Z,44.28
2018-08-11T19:09:13.074Z,43.87
2018-08-11T19:11:42.380Z,43.86
2018-08-11T19:14:11.479Z,43.94
2018-08-11T19:16:40.580Z,44.54
2018-08-11T19:19:09.679Z,44.38
2018-08-11T19:21:38.822Z,45.62
2018-08-11T19:24:07.971Z,45.65
2018-08-11T19:26:37.176Z,45.54
2018-08-11T19:29:06.528Z,45.22
2018-08-11T19:31:35.682Z,45.17
2018-08-11T19:34:04.794Z,45.45
2018-08-11T19:36:33.875Z,46.43
2018-08-11T19:39:03.048Z,46.35
2018-08-11T19:41:32.132Z,46.08
2018-08-11T19:44:01.234Z,47.54
2018-08-11T19:46:30.441Z,46.70
2018-08-11T19:48:59.501Z,47.81
2018-08-11T19:51:28.635Z,47.38
2018-08-11T19:53:58.579Z,47.59
2018-08-11T19:56:27.714Z,48.81
2018-08-11T19:58:56.803Z,48.63
2018-08-11T20:01:26.055Z,49.06
2018-08-11T20:03:55.112Z,49.48
2018-08-11T20:06:24.297Z,49.33
2018-08-11T20:08:53.508Z,48.86
2018-08-11T20:11:22.666Z,49.33
2018-08-11T20:13:51.824Z,49.78
2018-08-11T20:16:21.047Z,50.39
2018-08-11T20:18:50.170Z,50.81
2018-08-11T20:21:19.216Z,50.87
2018-08-11T20:23:48.381Z,50.23
2018-08-11T20:26:17.497Z,51.31
2018-08-11T20:28:46.609Z,51.07
2018-08-11T20:31:15.719Z,51.96
2018-08-11T20:33:44.883Z,51.45
2018-08-11T20:36:13.993Z,52.29
2018-08-11T20:38:43.116Z,52.25
2018-08-11T20:41:12.253Z,51.89
2018-08-11T20:43:41.407Z,52.08
2018-08-11T20:46:10.583Z,51.66
2018-08-11T20:48:39.667Z,53.15
2018-08-11T20:51:08.765Z,53.28
2018-08-11T20:53:37.941Z,52.88
2018-08-11T20:56:07.047Z,52.64
2018-08-11T20:58:36.167Z,54.01
2018-08-11T21:01:05.425Z,53.73
2018-08-11T21:03:34.523Z,54.11
2018-08-11T21:06:03.664Z,53.78
2018-08-11T21:08:32.855Z,54.68
2018-08-11T21:11:02.023Z,54.88
2018-08-11T21:13:31.145Z,54.72
2018-08-11T21:16:00.256Z,54.61
2018-08-11T21:18:29.384Z,55.64
2018-08-11T21:20:58.503Z,55.09
2018-08-11T21:23:27.687Z,54.53
2018-08-11T21:25:56.711Z,55.40
2018-08-11T21:28:25.813Z,55.92
2018-08-11T21:30:54.980Z,55.37
2018-08-11T21:33:24.071Z,56.04
2018-08-11T21:35:53.188Z,54.99
2018-08-11T21:38:22.360Z,55.10
2018-08-11T21:40:51.462Z,55.43
2018-08-11T21:43:20.555Z,55.53
2018-08-11T21:45:49.668Z,56.03
2018-08-11T21:48:18.800Z,56.28
2018-08-11T21:50:47.919Z,56.49
2018-08-11T21:53:17.085Z,55.53
2018-08-11T21:55:46.183Z,56.31
2018-08-11T21:58:15.352Z,54.79
2018-08-11T22:00:49.632Z,55.59
2018-08-11T22:03:18.723Z,54.71
2018-08-11T22:05:47.811Z,54.81
2018-08-11T22:08:17.016Z,55.26
2018-08-11T22:10:46.092Z,55.45
2018-08-11T22:13:15.295Z,55.47
2018-08-11T22:15:45.658Z,54.72
2018-08-11T22:18:14.829Z,55.46
2018-08-11T22:20:43.935Z,55.05
2018-08-11T22:23:13.135Z,55.99
2018-08-11T22:25:42.437Z,55.51
2018-08-11T22:28:11.558Z,55.41
2018-08-11T22:30:41.653Z,56.10
2018-08-11T22:33:10.780Z,55.33
2018-08-11T22:35:39.930Z,55.68
2018-08-11T22:38:09.044Z,56.15
2018-08-11T22:40:38.164Z,55.67
2018-08-11T22:43:07.329Z,55.95
2018-08-11T22:45:36.480Z,56.56
2018-08-11T22:50:48.207Z,55.29
2018-08-11T22:53:17.475Z,56.24
2018-08-11T22:55:46.632Z,56.12
2018-08-11T22:58:15.779Z,56.46
2018-08-11T23:00:44.896Z,55.17
2018-08-11T23:03:14.067Z,55.81
2018-08-11T23:05:43.192Z,54.80
2018-08-11T23:08:12.288Z,56.00
2018-08-11T23:10:41.491Z,55.84
2018-08-11T23:13:10.614Z,55.86
2018-08-11T23:15:39.798Z,56.09
2018-08-11T23:18:08.972Z,55.97
2018-08-11T23:20:38.102Z,55.69
2018-08-11T23:23:07.212Z,55.38
2018-08-11T23:25:36.321Z,56.80
2018-08-11T23:28:05.447Z,56.11
2018-08-11T23:30:34.587Z,55.41
2018-08-11T23:33:04.027Z,55.84
2018-08-11T23:35:33.416Z,55.90
2018-08-11T23:38:02.554Z,56.33
2018-08-11T23:40:31.723Z,56.34
2018-08-11T23:43:00.883Z,55.60
2018-08-11T23:45:30.072Z,55.03
2018-08-11T23:47:59.183Z,54.60
2018-08-11T23:50:28.321Z,54.88
2018-08-11T23:52:57.432Z,54.49
2018-08-11T23:55:26.571Z,54.14
2018-08-11T23:57:55.751Z,53.89
